createdAt,value
2019-02-20T00:02:10.936Z,7.10
2019-02-20T00:04:39.677Z,8.00
2019-02-20T00:07:08.414Z,6.85
2019-02-20T00:09:37.146Z,6.80
2019-02-20T00:12:05.889Z,6.53
2019-02-20T00:14:34.707Z,7.23
2019-02-20T00:17:03.464Z,6.93
2019-02-20T00:19:32.194Z,6.47
2019-02-20T00:22:00.957Z,6.47
2019-02-20T00:24:29.709Z,6.70
2019-02-20T00:26:58.573Z,6.27
2019-02-20T00:29:27.286Z,6.80
2019-02-20T00:31:56.036Z,6.20
2019-02-20T00:34:24.797Z,6.43
2019-02-20T00:36:53.538Z,7.33
2019-02-20T00:39:22.284Z,6.17
2019-02-20T00:41:51.041Z,6.47
2019-02-20T00:44:48.144Z,6.50
2019-02-20T00:47:27.940Z,6.03
2019-02-20T00:49:56.692Z,6.43
2019-02-20T00:52:49.580Z,5.23
2019-02-20T00:55:14.032Z,5.50
2019-02-20T00:57:42.780Z,5.10
2019-02-20T01:00:12.573Z,5.47
2019-02-20T01:02:41.417Z,5.25
2019-02-20T01:05:10.355Z,6.53
2019-02-20T01:07:39.116Z,5.30
2019-02-20T01:10:08.588Z,5.90
2019-02-20T01:12:37.337Z,5.97
2019-02-20T01:15:06.825Z,6.62
2019-02-20T01:17:35.584Z,5.93
2019-02-20T01:20:05.022Z,6.53
2019-02-20T01:22:33.760Z,7.07
2019-02-20T01:25:02.568Z,6.13
2019-02-20T01:27:31.309Z,6.63
2019-02-20T01:30:00.298Z,6.10
2019-02-20T01:32:29.847Z,6.47
2019-02-20T01:34:58.629Z,6.10
2019-02-20T01:37:27.373Z,5.93
2019-02-20T01:39:56.121Z,5.60
2019-02-20T01:42:24.838Z,5.40
2019-02-20T01:44:53.575Z,5.53
2019-02-20T01:47:22.388Z,4.47
2019-02-20T01:49:51.122Z,4.87
2019-02-20T01:52:19.849Z,5.57
2019-02-20T01:54:48.611Z,5.47
2019-02-20T01:57:17.346Z,6.00
2019-02-20T01:59:46.074Z,6.17
2019-02-20T02:02:14.822Z,5.80
2019-02-20T02:04:43.571Z,6.53
2019-02-20T02:07:12.317Z,6.43
2019-02-20T02:09:41.136Z,6.50
2019-02-20T02:12:09.979Z,7.17
2019-02-20T02:14:38.717Z,6.65
2019-02-20T02:17:07.451Z,6.30
2019-02-20T02:19:37.338Z,6.50
2019-02-20T02:22:06.146Z,5.90
2019-02-20T02:24:34.879Z,7.23
2019-02-20T02:27:03.788Z,6.10
2019-02-20T02:29:32.630Z,6.07
2019-02-20T02:32:01.529Z,6.67
2019-02-20T02:34:30.406Z,6.00
2019-02-20T02:36:59.131Z,6.17
2019-02-20T02:39:27.894Z,6.27
2019-02-20T02:41:58.396Z,6.12
2019-02-20T02:44:27.134Z,6.93
2019-02-20T02:46:55.881Z,7.20
2019-02-20T02:49:24.639Z,7.00
2019-02-20T02:51:53.363Z,7.03
2019-02-20T02:54:22.117Z,6.30
2019-02-20T02:56:50.931Z,6.90
2019-02-20T02:59:19.669Z,6.60
2019-02-20T03:01:48.503Z,7.00
2019-02-20T03:04:17.249Z,6.77
2019-02-20T03:06:45.996Z,6.60
2019-02-20T03:09:14.721Z,6.77
2019-02-20T03:11:43.484Z,6.50
2019-02-20T03:14:12.206Z,7.03
2019-02-20T03:16:40.976Z,6.62
2019-02-20T03:19:09.780Z,6.27
2019-02-20T03:21:38.524Z,6.43
2019-02-20T03:24:07.280Z,6.93
2019-02-20T03:26:36.055Z,6.63
2019-02-20T03:29:04.956Z,6.70
2019-02-20T03:31:33.722Z,6.67
2019-02-20T03:34:02.930Z,6.70
2019-02-20T03:36:31.948Z,6.73
2019-02-20T03:39:00.733Z,6.45
2019-02-20T03:41:29.516Z,6.13
2019-02-20T03:43:58.260Z,6.90
2019-02-20T03:46:27.007Z,7.20
2019-02-20T03:48:55.735Z,7.25
2019-02-20T03:51:24.487Z,7.17
2019-02-20T03:53:54.459Z,7.72
2019-02-20T03:56:23.357Z,9.30
2019-02-20T03:58:52.153Z,8.20
2019-02-20T04:01:20.987Z,9.33
2019-02-20T04:03:49.724Z,8.63
2019-02-20T04:06:18.469Z,8.88
2019-02-20T04:08:47.217Z,7.43
2019-02-20T04:11:15.957Z,8.98
2019-02-20T04:13:44.723Z,7.67
2019-02-20T04:16:14.384Z,8.00
2019-02-20T04:18:43.163Z,8.47
2019-02-20T04:21:11.911Z,6.90
2019-02-20T04:23:40.662Z,7.17
2019-02-20T04:26:09.998Z,7.67
2019-02-20T04:28:39.020Z,8.20
2019-02-20T04:31:07.762Z,6.90
2019-02-20T04:33:36.494Z,7.70
2019-02-20T04:36:05.338Z,7.58
2019-02-20T04:38:34.248Z,7.27
2019-02-20T04:41:02.982Z,7.57
2019-02-20T04:43:33.313Z,7.35
2019-02-20T04:46:02.057Z,7.27
2019-02-20T04:48:30.802Z,7.30
2019-02-20T04:50:59.607Z,7.90
2019-02-20T04:53:28.341Z,7.63
2019-02-20T04:55:57.202Z,7.43
2019-02-20T04:58:26.014Z,7.63
2019-02-20T05:00:54.824Z,8.20
2019-02-20T05:03:23.580Z,8.57
2019-02-20T05:05:53.135Z,9.10
2019-02-20T05:08:21.885Z,9.47
2019-02-20T05:10:50.693Z,9.13
2019-02-20T05:13:19.426Z,9.27
2019-02-20T05:15:48.150Z,8.40
2019-02-20T05:18:16.903Z,8.63
2019-02-20T05:20:45.626Z,9.07
2019-02-20T05:23:14.445Z,8.50
2019-02-20T05:25:43.226Z,7.73
2019-02-20T05:28:11.957Z,8.23
2019-02-20T05:30:41.097Z,8.60
2019-02-20T05:33:10.419Z,8.78
2019-02-20T05:35:39.170Z,9.53
2019-02-20T05:38:07.898Z,10.10
2019-02-20T05:40:36.661Z,9.03
2019-02-20T05:43:05.408Z,9.87
2019-02-20T05:45:34.158Z,9.40
2019-02-20T05:48:02.995Z,8.70
2019-02-20T05:50:31.738Z,9.55
2019-02-20T05:53:00.474Z,12.53
2019-02-20T05:55:29.350Z,13.40
2019-02-20T05:57:58.088Z,9.77
2019-02-20T06:00:26.875Z,9.03
2019-02-20T06:02:55.670Z,8.97
2019-02-20T06:05:24.432Z,8.80
2019-02-20T06:07:53.177Z,8.55
2019-02-20T06:10:21.976Z,9.03
2019-02-20T06:12:50.993Z,9.37
2019-02-20T06:15:19.748Z,10.83
2019-02-20T06:17:48.486Z,10.93
2019-02-20T06:20:17.238Z,10.58
2019-02-20T06:22:45.980Z,11.43
2019-02-20T06:25:14.762Z,11.20
2019-02-20T06:27:43.523Z,11.53
2019-02-20T06:30:12.529Z,11.77
2019-02-20T06:32:41.277Z,12.28
2019-02-20T06:35:10.115Z,12.37
2019-02-20T06:37:38.897Z,12.60
2019-02-20T06:40:08.561Z,13.60
2019-02-20T06:42:37.404Z,13.13
2019-02-20T06:45:06.612Z,13.23
2019-02-20T06:47:35.352Z,13.40
2019-02-20T06:50:04.592Z,12.93
2019-02-20T06:52:33.349Z,12.20
2019-02-20T06:55:02.173Z,12.77
2019-02-20T06:57:30.902Z,12.53
2019-02-20T06:59:59.656Z,12.13
2019-02-20T07:02:28.408Z,11.13
2019-02-20T07:05:35.298Z,10.20
2019-02-20T07:08:44.440Z,10.67
2019-02-20T07:11:25.141Z,11.20
2019-02-20T07:14:01.300Z,24.27
2019-02-20T07:17:12.576Z,15.80
2019-02-20T07:19:59.696Z,13.40
2019-02-20T07:23:03.915Z,9.13
2019-02-20T07:25:46.844Z,8.83
2019-02-20T07:28:32.521Z,14.77
2019-02-20T07:31:01.313Z,10.50
2019-02-20T07:33:30.146Z,15.40
2019-02-20T07:35:58.905Z,17.13
2019-02-20T07:38:27.640Z,13.10
2019-02-20T07:40:56.392Z,15.93
2019-02-20T07:43:25.137Z,10.77
2019-02-20T07:45:53.879Z,9.43
2019-02-20T07:48:22.618Z,7.87
2019-02-20T07:50:51.373Z,7.93
2019-02-20T07:53:20.141Z,8.13
2019-02-20T07:55:48.888Z,6.67
2019-02-20T07:58:17.641Z,7.67
2019-02-20T08:00:46.389Z,7.03
2019-02-20T08:03:15.150Z,8.20
2019-02-20T08:05:43.884Z,8.47
2019-02-20T08:08:14.306Z,8.73
2019-02-20T08:10:43.499Z,8.07
2019-02-20T08:13:12.250Z,6.87
2019-02-20T08:15:40.984Z,7.63
2019-02-20T08:18:09.789Z,7.60
2019-02-20T08:20:38.543Z,6.43
2019-02-20T08:23:07.290Z,7.03
2019-02-20T08:25:36.021Z,6.08
2019-02-20T08:28:04.847Z,5.53
2019-02-20T08:30:33.691Z,6.17
2019-02-20T08:33:02.446Z,6.03
2019-02-20T08:35:31.193Z,6.30
2019-02-20T08:37:59.939Z,5.80
2019-02-20T08:40:28.705Z,7.00
2019-02-20T08:42:57.449Z,6.33
2019-02-20T08:45:26.277Z,7.00
2019-02-20T08:47:55.028Z,6.80
2019-02-20T08:50:23.770Z,7.67
2019-02-20T08:52:52.535Z,7.97
2019-02-20T08:55:21.321Z,7.22
2019-02-20T08:57:50.086Z,7.80
2019-02-20T09:00:20.968Z,7.40
2019-02-20T09:02:49.478Z,7.30
2019-02-20T09:05:18.230Z,8.03
2019-02-20T09:07:47.007Z,7.30
2019-02-20T09:10:17.372Z,8.10
2019-02-20T09:12:46.450Z,8.83
2019-02-20T09:15:15.360Z,8.48
2019-02-20T09:17:44.118Z,8.10
2019-02-20T09:20:12.974Z,7.30
2019-02-20T09:22:41.733Z,7.50
2019-02-20T09:25:19.170Z,7.90
2019-02-20T09:27:41.251Z,7.47
2019-02-20T09:30:12.319Z,7.80
2019-02-20T09:32:41.156Z,7.70
2019-02-20T09:35:10.278Z,8.30
2019-02-20T09:37:39.022Z,8.03
2019-02-20T09:40:10.319Z,8.13
2019-02-20T09:42:40.596Z,8.08
2019-02-20T09:45:10.778Z,9.20
2019-02-20T09:47:39.506Z,8.38
2019-02-20T09:50:08.687Z,8.60
2019-02-20T09:52:37.442Z,8.77
2019-02-20T09:55:06.853Z,9.67
2019-02-20T09:57:35.609Z,9.83
2019-02-20T10:00:05.824Z,10.73
2019-02-20T10:02:34.600Z,9.53
2019-02-20T10:05:03.353Z,9.53
2019-02-20T10:07:32.092Z,9.77
2019-02-20T10:10:00.852Z,10.05
2019-02-20T10:12:29.600Z,10.03
2019-02-20T10:14:58.364Z,10.18
2019-02-20T10:17:27.115Z,9.50
2019-02-20T10:19:55.846Z,10.37
2019-02-20T10:22:24.596Z,10.77
2019-02-20T10:24:53.353Z,9.73
2019-02-20T10:27:22.193Z,10.70
2019-02-20T10:29:51.000Z,10.53
2019-02-20T10:32:19.747Z,11.25
2019-02-20T10:34:48.512Z,10.90
2019-02-20T10:37:17.253Z,10.95
2019-02-20T10:39:46.022Z,11.37
2019-02-20T10:42:14.773Z,12.37
2019-02-20T10:44:43.512Z,10.83
2019-02-20T10:47:12.265Z,11.43
2019-02-20T10:49:41.004Z,12.03
2019-02-20T10:52:09.767Z,11.30
2019-02-20T10:54:38.546Z,11.95
2019-02-20T10:57:07.357Z,11.70
2019-02-20T10:59:36.126Z,11.35
2019-02-20T11:02:05.329Z,12.13
2019-02-20T11:04:34.234Z,12.60
2019-02-20T11:07:03.142Z,11.27
2019-02-20T11:09:31.982Z,12.00
2019-02-20T11:12:00.906Z,11.63
2019-02-20T11:14:29.660Z,11.90
2019-02-20T11:16:58.418Z,12.70
2019-02-20T11:19:27.161Z,11.57
2019-02-20T11:21:56.000Z,13.22
2019-02-20T11:24:24.747Z,10.37
2019-02-20T11:26:55.255Z,11.85
2019-02-20T11:29:23.978Z,12.67
2019-02-20T11:31:54.249Z,12.80
2019-02-20T11:34:22.988Z,11.57
2019-02-20T11:36:51.754Z,11.90
2019-02-20T11:39:20.529Z,11.93
2019-02-20T11:41:49.272Z,12.37
2019-02-20T11:44:20.997Z,11.08
2019-02-20T11:46:48.561Z,12.47
2019-02-20T11:49:17.324Z,12.33
2019-02-20T11:51:46.073Z,12.57
2019-02-20T11:54:15.015Z,12.43
2019-02-20T11:56:43.762Z,12.80
2019-02-20T11:59:12.520Z,12.20
2019-02-20T12:01:41.322Z,11.60
2019-02-20T12:04:10.096Z,12.10
2019-02-20T12:06:38.857Z,12.37
2019-02-20T12:09:07.873Z,11.93
2019-02-20T12:11:36.772Z,11.53
2019-02-20T12:14:05.524Z,11.40
2019-02-20T12:16:34.277Z,11.63
2019-02-20T12:19:03.120Z,11.90
2019-02-20T12:21:31.866Z,12.73
2019-02-20T12:24:00.626Z,11.43
2019-02-20T12:26:34.837Z,11.63
2019-02-20T12:28:59.891Z,11.47
2019-02-20T12:31:28.707Z,12.33
2019-02-20T12:33:57.494Z,10.80
2019-02-20T12:36:26.245Z,11.93
2019-02-20T12:38:55.041Z,11.45
2019-02-20T12:41:23.830Z,10.87
2019-02-20T12:43:52.645Z,11.10
2019-02-20T12:46:21.490Z,10.60
2019-02-20T12:48:50.343Z,10.23
2019-02-20T12:51:19.088Z,11.20
2019-02-20T12:53:47.845Z,10.80
2019-02-20T12:56:16.669Z,10.78
2019-02-20T12:58:45.416Z,10.13
2019-02-20T13:01:14.246Z,10.28
2019-02-20T13:03:43.002Z,10.47
2019-02-20T13:06:11.741Z,10.40
2019-02-20T13:08:40.582Z,10.07
2019-02-20T13:11:09.534Z,10.08
2019-02-20T13:13:43.440Z,8.97
2019-02-20T13:16:12.011Z,8.07
2019-02-20T13:18:40.751Z,8.60
2019-02-20T13:21:11.001Z,8.50
2019-02-20T13:23:40.022Z,8.63
2019-02-20T13:26:08.941Z,8.80
2019-02-20T13:28:37.701Z,8.63
2019-02-20T13:31:06.473Z,9.03
2019-02-20T13:33:35.701Z,8.23
2019-02-20T13:36:05.512Z,8.63
2019-02-20T13:38:35.366Z,8.63
2019-02-20T13:41:04.292Z,9.00
2019-02-20T13:43:33.041Z,7.90
2019-02-20T13:46:01.900Z,7.67
2019-02-20T13:48:30.674Z,8.37
2019-02-20T13:50:59.551Z,8.43
2019-02-20T13:53:28.365Z,9.43
2019-02-20T13:55:57.204Z,8.28
2019-02-20T13:58:26.472Z,8.03
2019-02-20T14:00:55.293Z,8.17
2019-02-20T14:03:24.126Z,7.40
2019-02-20T14:05:52.883Z,7.40
2019-02-20T14:08:21.788Z,6.97
2019-02-20T14:10:50.615Z,6.83
2019-02-20T14:13:26.641Z,7.87
2019-02-20T14:15:55.398Z,7.43
2019-02-20T14:18:24.133Z,7.22
2019-02-20T14:20:52.951Z,7.90
2019-02-20T14:23:21.693Z,6.85
2019-02-20T14:25:50.509Z,7.27
2019-02-20T14:28:19.252Z,7.17
2019-02-20T14:30:48.174Z,6.43
2019-02-20T14:33:16.937Z,7.43
2019-02-20T14:35:46.838Z,6.97
2019-02-20T14:38:15.605Z,6.77
2019-02-20T14:40:44.352Z,7.27
2019-02-20T14:43:13.103Z,7.43
2019-02-20T14:45:42.415Z,6.63
2019-02-20T14:48:11.164Z,7.40
2019-02-20T14:50:40.491Z,6.80
2019-02-20T14:53:09.254Z,6.97
2019-02-20T14:55:38.025Z,6.70
2019-02-20T14:58:06.844Z,7.10
2019-02-20T15:00:35.958Z,7.20
2019-02-20T15:03:05.020Z,6.50
2019-02-20T15:05:33.785Z,6.50
2019-02-20T15:08:02.642Z,6.33
2019-02-20T15:10:34.290Z,7.03
2019-02-20T15:13:03.149Z,6.55
2019-02-20T15:15:32.326Z,6.57
2019-02-20T15:18:07.979Z,6.27
2019-02-20T15:20:36.874Z,6.50
2019-02-20T15:23:05.632Z,6.30
2019-02-20T15:25:34.393Z,5.97
2019-02-20T15:28:04.739Z,5.97
2019-02-20T15:30:33.698Z,6.10
2019-02-20T15:33:02.853Z,5.87
2019-02-20T15:35:31.625Z,12.47
2019-02-20T15:38:00.529Z,11.60
2019-02-20T15:40:29.998Z,8.13
2019-02-20T15:43:01.633Z,6.93
2019-02-20T15:45:30.614Z,5.78
2019-02-20T15:47:59.646Z,6.40
2019-02-20T15:50:28.449Z,6.10
2019-02-20T15:52:57.282Z,6.00
2019-02-20T15:55:27.218Z,6.15
2019-02-20T15:57:56.088Z,6.70
2019-02-20T16:00:26.091Z,6.33
2019-02-20T16:02:55.318Z,5.73
2019-02-20T16:05:24.373Z,6.17
2019-02-20T16:07:53.539Z,5.85
2019-02-20T16:10:22.724Z,6.40
2019-02-20T16:12:53.106Z,6.57
2019-02-20T16:15:22.059Z,7.27
2019-02-20T16:17:50.841Z,6.35
2019-02-20T16:20:19.758Z,6.53
2019-02-20T16:22:48.598Z,12.00
2019-02-20T16:25:17.363Z,19.17
2019-02-20T16:27:47.600Z,11.90
2019-02-20T16:30:16.800Z,8.07
2019-02-20T16:32:45.830Z,6.80
2019-02-20T16:35:16.297Z,5.93
2019-02-20T16:37:45.184Z,6.20
2019-02-20T16:40:14.687Z,6.00
2019-02-20T16:42:43.466Z,5.90
2019-02-20T16:45:23.032Z,6.33
2019-02-20T16:47:52.418Z,5.20
2019-02-20T16:50:21.696Z,5.57
2019-02-20T16:52:50.837Z,6.00
2019-02-20T16:55:19.867Z,6.22
2019-02-20T16:57:56.290Z,6.30
2019-02-20T17:00:21.487Z,5.70
2019-02-20T17:02:50.779Z,5.87
2019-02-20T17:05:19.726Z,6.13
2019-02-20T17:07:48.646Z,7.00
2019-02-20T17:10:17.632Z,8.67
2019-02-20T17:12:46.420Z,10.03
2019-02-20T17:15:15.825Z,11.37
2019-02-20T17:17:44.854Z,8.25
2019-02-20T17:20:14.512Z,19.17
2019-02-20T17:22:43.333Z,7.70
2019-02-20T17:25:12.584Z,6.73
2019-02-20T17:27:41.482Z,6.47
2019-02-20T17:30:11.621Z,6.80
2019-02-20T17:32:40.640Z,6.10
2019-02-20T17:35:10.261Z,6.80
2019-02-20T17:37:39.288Z,6.30
2019-02-20T17:40:08.592Z,6.07
2019-02-20T17:42:37.418Z,6.03
2019-02-20T17:45:07.761Z,6.00
2019-02-20T17:47:36.608Z,6.73
2019-02-20T17:50:08.991Z,5.50
2019-02-20T17:52:37.945Z,5.83
2019-02-20T17:55:11.724Z,7.70
2019-02-20T17:57:40.482Z,6.60
2019-02-20T18:00:10.794Z,10.10
2019-02-20T18:02:39.632Z,16.37
2019-02-20T18:05:08.873Z,7.13
2019-02-20T18:07:37.683Z,5.97
2019-02-20T18:10:07.477Z,4.97
2019-02-20T18:12:36.402Z,4.87
2019-02-20T18:15:06.153Z,5.80
2019-02-20T18:17:34.988Z,4.87
2019-02-20T18:20:04.252Z,5.07
2019-02-20T18:22:33.002Z,4.83
2019-02-20T18:25:01.755Z,4.67
2019-02-20T18:27:30.480Z,4.97
2019-02-20T18:29:59.244Z,4.47
2019-02-20T18:32:28.172Z,26.37
2019-02-20T18:34:58.232Z,8.83
2019-02-20T18:37:30.176Z,5.50
2019-02-20T18:39:59.275Z,4.47
2019-02-20T18:42:28.562Z,4.67
2019-02-20T18:44:57.361Z,5.75
2019-02-20T18:47:26.101Z,5.27
2019-02-20T18:49:54.877Z,4.10
2019-02-20T18:52:23.602Z,4.93
2019-02-20T18:54:52.357Z,4.37
2019-02-20T18:57:21.183Z,4.77
2019-02-20T18:59:49.936Z,4.45
2019-02-20T19:02:18.680Z,5.63
2019-02-20T19:04:49.255Z,5.42
2019-02-20T19:07:18.012Z,10.13
2019-02-20T19:09:48.853Z,13.87
2019-02-20T19:12:57.238Z,9.10
2019-02-20T19:16:06.049Z,7.33
2019-02-20T19:19:29.128Z,7.17
2019-02-20T19:22:49.110Z,6.63
2019-02-20T19:26:00.582Z,6.60
2019-02-20T19:28:54.778Z,6.60
2019-02-20T19:31:51.624Z,6.58
2019-02-20T19:34:39.738Z,5.67
2019-02-20T19:37:18.449Z,6.60
2019-02-20T19:40:20.739Z,9.43
2019-02-20T19:43:36.744Z,8.00
2019-02-20T19:46:59.956Z,6.87
2019-02-20T19:50:23.017Z,7.17
2019-02-20T19:53:20.175Z,7.57
2019-02-20T19:56:30.361Z,7.05
2019-02-20T19:59:59.981Z,8.53
2019-02-20T20:03:09.861Z,8.83
2019-02-20T20:05:57.145Z,10.77
2019-02-20T20:09:09.304Z,10.30
2019-02-20T20:12:27.866Z,13.03
2019-02-20T20:15:30.742Z,10.53
2019-02-20T20:18:52.082Z,9.57
2019-02-20T20:21:46.593Z,9.17
2019-02-20T20:24:51.024Z,9.73
2019-02-20T20:27:47.429Z,9.40
2019-02-20T20:30:35.691Z,9.98
2019-02-20T20:33:42.941Z,10.95
2019-02-20T20:36:35.189Z,9.80
2019-02-20T20:40:14.795Z,9.37
2019-02-20T20:43:07.997Z,8.53
2019-02-20T20:45:51.033Z,8.50
2019-02-20T20:48:27.085Z,9.25
2019-02-20T20:51:46.096Z,10.90
2019-02-20T20:54:27.604Z,7.70
2019-02-20T20:57:25.393Z,7.90
2019-02-20T21:00:16.716Z,10.90
2019-02-20T21:02:53.997Z,14.07
2019-02-20T21:06:21.769Z,20.47
2019-02-20T21:08:59.091Z,15.30
2019-02-20T21:11:52.071Z,18.03
2019-02-20T21:15:09.620Z,11.73
2019-02-20T21:18:09.250Z,9.03
2019-02-20T21:21:00.289Z,9.70
2019-02-20T21:23:57.296Z,10.10
2019-02-20T21:26:56.488Z,9.20
2019-02-20T21:29:50.040Z,9.60
2019-02-20T21:32:35.605Z,8.27
2019-02-20T21:35:16.574Z,8.23
2019-02-20T21:38:22.225Z,7.77
2019-02-20T21:40:58.579Z,7.17
2019-02-20T21:43:48.573Z,6.90
2019-02-20T21:46:39.468Z,6.40
2019-02-20T21:49:24.753Z,7.00
2019-02-20T21:53:02.561Z,6.53
2019-02-20T21:56:06.680Z,9.10
2019-02-20T21:58:57.913Z,7.57
2019-02-20T22:01:57.844Z,8.17
2019-02-20T22:04:43.429Z,8.08
2019-02-20T22:08:15.058Z,8.10
2019-02-20T22:11:13.756Z,9.80
2019-02-20T22:14:13.181Z,10.53
2019-02-20T22:17:08.471Z,10.93
2019-02-20T22:20:06.811Z,11.37
2019-02-20T22:22:51.936Z,11.87
2019-02-20T22:25:46.829Z,10.87
2019-02-20T22:28:39.660Z,9.50
2019-02-20T22:31:42.148Z,9.33
2019-02-20T22:34:45.956Z,9.57
2019-02-20T22:37:46.817Z,9.10
2019-02-20T22:40:41.992Z,10.27
2019-02-20T22:43:31.288Z,9.97
2019-02-20T22:46:15.218Z,10.10
2019-02-20T22:49:23.328Z,9.70
2019-02-20T22:52:09.329Z,9.50
2019-02-20T22:55:17.987Z,9.77
2019-02-20T22:58:10.006Z,9.20
2019-02-20T23:01:21.036Z,10.00
2019-02-20T23:04:05.728Z,8.87
2019-02-20T23:06:56.709Z,9.00
2019-02-20T23:09:52.721Z,7.20
2019-02-20T23:13:07.168Z,7.47
2019-02-20T23:15:36.000Z,6.90
2019-02-20T23:18:04.817Z,6.30
2019-02-20T23:20:34.861Z,6.10
2019-02-20T23:23:03.594Z,6.17
2019-02-20T23:25:32.353Z,6.90
2019-02-20T23:28:01.132Z,6.47
2019-02-20T23:30:29.878Z,6.92
2019-02-20T23:33:00.661Z,8.10
2019-02-20T23:35:29.100Z,7.33
2019-02-20T23:37:57.860Z,6.97
2019-02-20T23:40:27.791Z,6.60
2019-02-20T23:42:56.874Z,6.87
2019-02-20T23:45:25.692Z,6.67
2019-02-20T23:47:54.448Z,6.93
2019-02-20T23:50:23.257Z,6.57
2019-02-20T23:52:51.999Z,6.97
2019-02-20T23:55:20.729Z,5.73
2019-02-20T23:57:49.516Z,6.00
